Time;durP1;ratioP1;P1;durP2;ratioP2;P2;SDS_P1;SDS_P2;PMS_P1;PMS_P2;Temp;Humidity;BMP_temperature;BMP_pressure;BME280_temperature;BME280_humidity;BME280_pressure;Samples;Min_cycle;Max_cycle;Signal;HPM_P1;HPM_P2
2023/08/27 00:01:20;;;;;;;8.20;7.40;;;18.80;99.90;;;;;;5033268;28;20597;-71
2023/08/27 00:03:46;;;;;;;10.10;7.70;;;18.80;99.90;;;;;;5031966;28;20531;-70
2023/08/27 00:06:11;;;;;;;10.63;8.60;;;18.80;99.90;;;;;;5032040;28;20696;-70
2023/08/27 00:08:37;;;;;;;11.47;10.30;;;18.90;99.90;;;;;;5032387;28;20250;-70
2023/08/27 00:11:04;;;;;;;11.60;9.97;;;19.00;99.90;;;;;;5031787;28;20288;-70
2023/08/27 00:13:30;;;;;;;9.83;8.93;;;18.90;99.90;;;;;;5030868;28;20202;-71
2023/08/27 00:15:56;;;;;;;9.73;8.63;;;18.80;99.90;;;;;;5031742;28;20401;-71
2023/08/27 00:18:21;;;;;;;12.70;9.23;;;18.90;99.90;;;;;;5032072;28;21019;-71
2023/08/27 00:20:48;;;;;;;11.43;8.47;;;18.80;99.90;;;;;;5032237;28;20269;-69
2023/08/27 00:23:14;;;;;;;9.00;8.20;;;18.90;99.90;;;;;;5031993;28;20635;-70
2023/08/27 00:25:42;;;;;;;8.20;7.50;;;18.90;99.90;;;;;;5031523;28;20441;-69
2023/08/27 00:28:08;;;;;;;8.80;8.00;;;18.80;99.90;;;;;;5031292;28;20909;-69
2023/08/27 00:30:33;;;;;;;10.93;9.63;;;18.80;99.90;;;;;;5031367;28;20516;-70
2023/08/27 00:32:59;;;;;;;10.53;8.77;;;18.80;99.90;;;;;;5030360;28;20167;-70
2023/08/27 00:35:24;;;;;;;9.70;8.70;;;18.80;99.90;;;;;;5031336;28;20171;-70
2023/08/27 00:37:50;;;;;;;10.50;9.70;;;18.90;99.90;;;;;;5031490;28;20172;-69
2023/08/27 00:40:15;;;;;;;12.00;9.43;;;18.90;99.90;;;;;;5031803;28;20191;-70
2023/08/27 00:42:41;;;;;;;8.57;7.63;;;18.90;99.90;;;;;;5031316;28;20638;-70
2023/08/27 00:45:08;;;;;;;9.10;8.30;;;19.00;99.90;;;;;;5031620;28;20190;-70
2023/08/27 00:47:37;;;;;;;9.70;7.97;;;19.00;99.90;;;;;;5031425;28;20183;-69
2023/08/27 00:50:06;;;;;;;9.93;8.93;;;19.00;99.90;;;;;;5031347;28;20504;-70
2023/08/27 00:52:32;;;;;;;11.60;10.40;;;19.00;99.90;;;;;;5032005;28;20757;-70
2023/08/27 00:55:00;;;;;;;9.70;8.70;;;18.90;99.90;;;;;;5032255;28;20413;-69
2023/08/27 00:57:27;;;;;;;9.87;8.90;;;18.90;99.90;;;;;;5031710;28;20274;-69
2023/08/27 00:59:55;;;;;;;8.30;7.50;;;19.00;99.90;;;;;;5031262;28;20409;-70
2023/08/27 01:02:21;;;;;;;9.87;8.10;;;19.10;99.90;;;;;;5031392;28;20410;-69
2023/08/27 01:04:46;;;;;;;8.43;7.73;;;19.20;99.90;;;;;;5031547;28;20442;-70
2023/08/27 01:07:34;;;;;;;11.87;10.67;;;19.20;99.90;;;;;;5034651;28;20174;-70
2023/08/27 01:10:19;;;;;;;9.70;8.80;;;19.30;99.90;;;;;;5035465;28;20610;-69
2023/08/27 01:12:55;;;;;;;9.70;8.90;;;19.30;99.90;;;;;;5034740;28;20393;-69
2023/08/27 01:15:22;;;;;;;10.40;9.50;;;19.40;99.90;;;;;;5035238;28;20826;-69
2023/08/27 01:17:48;;;;;;;10.47;9.57;;;19.40;99.90;;;;;;5035219;28;20725;-69
2023/08/27 01:20:15;;;;;;;12.30;11.10;;;19.50;99.90;;;;;;5035391;28;20430;-68
2023/08/27 01:22:41;;;;;;;11.10;9.97;;;19.40;99.90;;;;;;5034846;28;20398;-70
2023/08/27 01:25:08;;;;;;;10.53;9.63;;;19.40;99.90;;;;;;5034932;28;20496;-69
2023/08/27 01:27:50;;;;;;;10.80;9.80;;;19.40;99.90;;;;;;5034734;28;20530;-70
2023/08/27 01:30:33;;;;;;;12.80;11.50;;;19.40;99.90;;;;;;5034630;28;20433;-70
2023/08/27 01:33:05;;;;;;;11.67;10.47;;;19.40;99.90;;;;;;5035425;28;20413;-68
2023/08/27 01:35:32;;;;;;;12.33;11.03;;;19.20;99.90;;;;;;5034732;28;20406;-70
2023/08/27 01:37:59;;;;;;;11.83;10.03;;;19.30;99.90;;;;;;5034855;28;20468;-70
2023/08/27 01:40:27;;;;;;;13.00;11.40;;;19.30;99.90;;;;;;5034777;28;20438;-69
2023/08/27 01:42:52;;;;;;;14.43;13.13;;;19.30;99.90;;;;;;5032735;28;20889;-70
2023/08/27 01:45:18;;;;;;;15.10;13.80;;;19.20;99.90;;;;;;5034889;28;20477;-70
2023/08/27 01:47:44;;;;;;;13.10;11.90;;;19.10;99.90;;;;;;5034610;28;20189;-69
2023/08/27 01:50:10;;;;;;;13.53;12.13;;;19.30;99.90;;;;;;5034411;28;20187;-69
2023/08/27 01:52:36;;;;;;;11.63;10.53;;;19.30;99.90;;;;;;5034693;28;20495;-70
2023/08/27 01:55:03;;;;;;;11.57;9.53;;;19.20;99.90;;;;;;5034442;28;20707;-70
2023/08/27 01:57:28;;;;;;;11.83;10.53;;;19.30;99.90;;;;;;5034329;28;20917;-70
2023/08/27 01:59:54;;;;;;;11.70;10.70;;;19.30;99.90;;;;;;5033794;28;20417;-69
2023/08/27 02:02:20;;;;;;;9.47;8.63;;;19.30;99.90;;;;;;5034060;28;20333;-70
2023/08/27 02:04:46;;;;;;;12.07;10.73;;;19.40;99.90;;;;;;5034316;28;20206;-69
2023/08/27 02:07:11;;;;;;;14.10;11.07;;;19.40;99.90;;;;;;5034123;28;20414;-70
2023/08/27 02:09:37;;;;;;;11.00;9.80;;;19.30;99.90;;;;;;5034105;28;20650;-70
2023/08/27 02:12:04;;;;;;;11.40;10.20;;;19.30;99.90;;;;;;5033925;28;20187;-70
2023/08/27 02:14:29;;;;;;;10.43;9.43;;;19.30;99.90;;;;;;5033777;28;20626;-70
2023/08/27 02:16:55;;;;;;;11.10;10.10;;;19.40;99.90;;;;;;5033580;28;20410;-70
2023/08/27 02:19:21;;;;;;;10.00;9.10;;;19.50;99.90;;;;;;5033526;28;20178;-68
2023/08/27 02:21:46;;;;;;;9.90;8.20;;;19.50;99.90;;;;;;5034087;28;20282;-70
2023/08/27 02:24:12;;;;;;;10.40;9.40;;;19.50;99.90;;;;;;5034249;28;20430;-69
2023/08/27 02:26:37;;;;;;;9.80;8.80;;;19.50;99.90;;;;;;5033683;28;20163;-70
2023/08/27 02:29:03;;;;;;;12.50;10.37;;;19.50;99.90;;;;;;5033710;28;20262;-70
2023/08/27 02:31:29;;;;;;;12.13;10.93;;;19.60;99.90;;;;;;5033871;28;20203;-69
2023/08/27 02:33:54;;;;;;;10.33;9.33;;;19.60;99.90;;;;;;5033866;28;20259;-69
2023/08/27 02:36:21;;;;;;;10.87;9.80;;;19.60;99.90;;;;;;5033904;28;20179;-70
2023/08/27 02:38:46;;;;;;;9.70;8.73;;;19.50;99.90;;;;;;5033706;28;20164;-70
2023/08/27 02:41:13;;;;;;;10.70;9.80;;;19.40;99.90;;;;;;5033485;28;20571;-69
2023/08/27 02:43:39;;;;;;;12.17;10.40;;;19.40;99.90;;;;;;5033163;28;20643;-68
2023/08/27 02:46:06;;;;;;;9.73;8.83;;;19.50;99.90;;;;;;5033498;28;20873;-71
2023/08/27 02:48:31;;;;;;;10.77;9.60;;;19.40;99.90;;;;;;5033723;28;20488;-69
2023/08/27 02:50:57;;;;;;;10.80;9.80;;;19.30;99.90;;;;;;5033415;28;20936;-70
2023/08/27 02:53:22;;;;;;;9.27;8.37;;;19.30;99.90;;;;;;5033459;28;20186;-70
2023/08/27 02:55:48;;;;;;;9.80;9.00;;;19.30;99.90;;;;;;5033796;28;20198;-69
2023/08/27 02:58:13;;;;;;;11.27;10.17;;;19.20;99.90;;;;;;5032918;28;20241;-69
2023/08/27 03:00:40;;;;;;;8.93;8.17;;;19.20;99.90;;;;;;5033398;28;20214;-70
2023/08/27 03:03:07;;;;;;;9.73;8.80;;;19.30;99.90;;;;;;5033498;28;20171;-69
2023/08/27 03:05:33;;;;;;;9.90;9.00;;;19.30;99.90;;;;;;5033227;28;20519;-69
2023/08/27 03:07:58;;;;;;;10.80;8.63;;;19.40;99.90;;;;;;5033143;28;20862;-70
2023/08/27 03:10:24;;;;;;;10.10;9.10;;;19.40;99.90;;;;;;5033309;28;20183;-70
2023/08/27 03:12:50;;;;;;;9.90;8.70;;;19.40;99.90;;;;;;5032901;28;20178;-69
2023/08/27 03:15:15;;;;;;;11.40;10.40;;;19.30;99.90;;;;;;5032963;28;20175;-70
2023/08/27 03:17:41;;;;;;;9.13;8.23;;;19.20;99.90;;;;;;5033284;28;20245;-70
2023/08/27 03:20:07;;;;;;;9.47;8.57;;;19.10;99.90;;;;;;5033145;28;20735;-69
2023/08/27 03:22:32;;;;;;;10.43;9.43;;;19.10;99.90;;;;;;5033368;28;20227;-70
2023/08/27 03:25:00;;;;;;;9.10;8.20;;;19.10;99.90;;;;;;5032921;28;20528;-69
2023/08/27 03:27:27;;;;;;;11.63;10.00;;;19.10;99.90;;;;;;5031377;28;20175;-70
2023/08/27 03:29:52;;;;;;;13.40;12.20;;;18.90;99.90;;;;;;5032184;28;20425;-69
2023/08/27 03:32:18;;;;;;;15.43;13.13;;;18.70;99.90;;;;;;5032882;28;20398;-69
2023/08/27 03:34:43;;;;;;;10.80;9.83;;;18.50;99.90;;;;;;5032757;28;20277;-69
2023/08/27 03:37:09;;;;;;;12.20;11.00;;;18.50;99.90;;;;;;5032721;28;20712;-70
2023/08/27 03:39:34;;;;;;;13.20;11.90;;;18.50;99.90;;;;;;5032205;28;20207;-70
2023/08/27 03:42:00;;;;;;;11.80;10.80;;;18.60;99.90;;;;;;5031075;28;20227;-70
2023/08/27 03:44:25;;;;;;;12.13;11.03;;;18.70;99.90;;;;;;5032162;28;20172;-70
2023/08/27 03:46:51;;;;;;;10.73;9.73;;;18.80;99.90;;;;;;5032707;28;20163;-70
2023/08/27 03:49:16;;;;;;;11.60;10.50;;;18.80;99.90;;;;;;5032698;28;20178;-70
2023/08/27 03:51:42;;;;;;;10.70;9.70;;;18.80;99.90;;;;;;5032653;28;20183;-71
2023/08/27 03:54:08;;;;;;;11.40;10.40;;;19.00;99.90;;;;;;5032704;28;20175;-71
2023/08/27 03:56:33;;;;;;;9.70;8.87;;;19.00;99.90;;;;;;5032646;28;20171;-70
2023/08/27 03:58:59;;;;;;;11.17;9.97;;;19.10;99.90;;;;;;5031995;28;20204;-70
2023/08/27 04:01:24;;;;;;;9.40;8.60;;;19.10;99.90;;;;;;5031923;28;20198;-70
2023/08/27 04:03:51;;;;;;;9.97;9.03;;;19.10;99.90;;;;;;5032472;28;20167;-71
2023/08/27 04:06:17;;;;;;;10.97;9.97;;;19.10;99.90;;;;;;5032273;28;20688;-69
2023/08/27 04:08:42;;;;;;;9.13;8.43;;;19.20;99.90;;;;;;5032099;28;20410;-70
2023/08/27 04:11:09;;;;;;;9.80;9.00;;;19.20;99.90;;;;;;5032042;28;20187;-70
2023/08/27 04:13:35;;;;;;;12.10;10.53;;;19.20;99.90;;;;;;5031559;28;20163;-71
2023/08/27 04:16:06;;;;;;;9.73;8.73;;;19.20;99.90;;;;;;5031936;28;20924;-70
2023/08/27 04:18:35;;;;;;;10.40;9.50;;;19.30;99.90;;;;;;5031898;28;20178;-70
2023/08/27 04:21:01;;;;;;;9.03;8.23;;;19.10;99.90;;;;;;5031738;28;20885;-69
2023/08/27 04:23:27;;;;;;;9.67;8.67;;;19.10;99.90;;;;;;5031964;28;20414;-70
2023/08/27 04:25:53;;;;;;;8.90;7.87;;;19.20;99.90;;;;;;5031757;28;20504;-70
2023/08/27 04:28:19;;;;;;;8.00;7.23;;;19.20;99.90;;;;;;5029956;28;20266;-70
2023/08/27 04:30:49;;;;;;;8.03;7.30;;;19.20;99.90;;;;;;5031279;28;20210;-70
2023/08/27 04:33:15;;;;;;;7.07;6.47;;;19.20;99.90;;;;;;5031498;28;20744;-70
2023/08/27 04:35:42;;;;;;;9.07;8.17;;;19.20;99.90;;;;;;5031285;28;20505;-70
2023/08/27 04:38:08;;;;;;;7.73;7.03;;;19.20;99.90;;;;;;5031503;28;20436;-69
2023/08/27 04:40:34;;;;;;;6.80;6.20;;;19.30;99.90;;;;;;5030896;28;20426;-70
2023/08/27 04:43:00;;;;;;;10.30;8.40;;;19.30;99.90;;;;;;5031443;28;20422;-70
2023/08/27 04:45:25;;;;;;;8.10;7.30;;;19.20;99.90;;;;;;5031095;28;20532;-71
2023/08/27 04:47:51;;;;;;;7.03;6.33;;;19.30;99.90;;;;;;5031425;28;20195;-69
2023/08/27 04:50:17;;;;;;;8.33;6.10;;;19.30;99.90;;;;;;5031314;28;20186;-70
2023/08/27 04:52:42;;;;;;;6.33;5.80;;;19.10;99.90;;;;;;5031277;28;20253;-70
2023/08/27 04:55:08;;;;;;;7.93;7.10;;;19.10;99.90;;;;;;5031396;28;20174;-71
2023/08/27 04:57:35;;;;;;;7.10;6.40;;;19.10;99.90;;;;;;5030997;28;20176;-70
2023/08/27 05:00:07;;;;;;;7.23;6.37;;;19.20;99.90;;;;;;5030818;28;20225;-70
2023/08/27 05:02:35;;;;;;;6.53;6.00;;;19.20;99.90;;;;;;5031095;28;20406;-69
2023/08/27 05:05:02;;;;;;;8.73;7.03;;;19.20;99.90;;;;;;5031220;28;20901;-69
2023/08/27 05:07:28;;;;;;;7.40;6.20;;;19.30;99.90;;;;;;5031174;28;20485;-70
2023/08/27 05:09:53;;;;;;;5.43;4.93;;;19.30;99.90;;;;;;5031403;28;20937;-69
2023/08/27 05:12:19;;;;;;;8.10;6.53;;;19.30;99.90;;;;;;5030928;28;20409;-69
2023/08/27 05:14:44;;;;;;;6.10;5.60;;;19.30;99.90;;;;;;5030951;28;20622;-70
2023/08/27 05:17:11;;;;;;;8.67;6.40;;;19.40;99.90;;;;;;5030943;28;20703;-70
2023/08/27 05:19:36;;;;;;;6.53;6.00;;;19.30;99.90;;;;;;5030934;28;20171;-70
2023/08/27 05:22:02;;;;;;;5.97;5.57;;;19.10;99.90;;;;;;5030690;28;20441;-70
2023/08/27 05:24:27;;;;;;;5.77;5.23;;;19.30;99.90;;;;;;5030777;28;20171;-70
2023/08/27 05:26:53;;;;;;;5.80;5.23;;;19.20;99.90;;;;;;5030719;28;20168;-70
2023/08/27 05:29:18;;;;;;;5.40;5.00;;;19.30;99.90;;;;;;5030090;28;20183;-71
2023/08/27 05:31:44;;;;;;;5.63;5.23;;;19.40;99.90;;;;;;5030672;28;20337;-71
2023/08/27 05:34:10;;;;;;;6.97;4.50;;;19.40;99.90;;;;;;5031147;28;20198;-70
2023/08/27 05:36:35;;;;;;;6.37;5.77;;;19.40;99.90;;;;;;5030765;28;20413;-70
2023/08/27 05:39:01;;;;;;;5.67;4.50;;;19.50;99.90;;;;;;5030640;28;20222;-71
2023/08/27 05:41:27;;;;;;;5.13;4.67;;;19.50;99.90;;;;;;5030713;28;20190;-71
2023/08/27 05:43:52;;;;;;;6.33;5.83;;;19.60;99.90;;;;;;5029713;28;20176;-71
2023/08/27 05:46:18;;;;;;;5.60;5.10;;;19.60;99.90;;;;;;5030217;28;20196;-71
2023/08/27 05:48:43;;;;;;;4.77;4.37;;;19.60;99.90;;;;;;5030848;28;20170;-70
2023/08/27 05:51:09;;;;;;;5.57;5.13;;;19.70;99.90;;;;;;5030774;28;20187;-70
2023/08/27 05:53:35;;;;;;;3.50;3.23;;;19.80;99.90;;;;;;5031788;28;20696;-71
2023/08/27 05:56:00;;;;;;;4.80;3.90;;;19.70;99.90;;;;;;5033587;28;20175;-70
2023/08/27 05:58:26;;;;;;;4.90;4.60;;;19.70;99.90;;;;;;5034443;28;20495;-70
2023/08/27 06:00:53;;;;;;;3.50;3.20;;;19.60;99.90;;;;;;5034090;28;20242;-71
2023/08/27 06:03:19;;;;;;;4.03;3.73;;;19.60;99.90;;;;;;5033548;28;20517;-70
2023/08/27 06:05:45;;;;;;;4.30;3.90;;;19.60;99.90;;;;;;5034153;28;20494;-70
2023/08/27 06:08:10;;;;;;;5.77;4.83;;;19.70;99.90;;;;;;5034130;28;20776;-70
2023/08/27 06:10:36;;;;;;;4.17;3.77;;;19.60;99.90;;;;;;5032908;28;20191;-70
2023/08/27 06:13:03;;;;;;;4.90;4.10;;;19.70;99.90;;;;;;5033567;28;20543;-70
2023/08/27 06:15:29;;;;;;;4.20;3.80;;;19.70;99.90;;;;;;5034138;28;20227;-70
2023/08/27 06:17:54;;;;;;;4.00;3.57;;;19.70;99.90;;;;;;5033663;28;20434;-72
2023/08/27 06:20:20;;;;;;;3.20;2.90;;;19.70;99.90;;;;;;5032987;28;20270;-70
2023/08/27 06:22:46;;;;;;;3.33;3.07;;;19.70;99.90;;;;;;5033814;28;20167;-70
2023/08/27 06:25:12;;;;;;;3.90;3.60;;;19.60;99.90;;;;;;5033732;28;20465;-70
2023/08/27 06:27:38;;;;;;;4.53;3.67;;;19.30;99.90;;;;;;5033216;28;20512;-70
2023/08/27 06:30:04;;;;;;;3.60;3.20;;;19.40;99.90;;;;;;5033163;28;20278;-70
2023/08/27 06:32:30;;;;;;;4.47;4.07;;;19.60;99.90;;;;;;5033425;28;20705;-70
2023/08/27 06:34:56;;;;;;;4.63;4.23;;;19.80;99.90;;;;;;5033228;28;20444;-70
2023/08/27 06:37:22;;;;;;;6.13;4.20;;;19.80;99.90;;;;;;5033085;28;20901;-70
2023/08/27 06:39:47;;;;;;;3.63;3.33;;;19.90;99.90;;;;;;5032860;28;20179;-70
2023/08/27 06:42:13;;;;;;;4.03;3.30;;;20.00;99.90;;;;;;5032960;28;20172;-69
2023/08/27 06:44:38;;;;;;;3.50;3.20;;;20.20;99.90;;;;;;5033300;28;20491;-70
2023/08/27 06:47:04;;;;;;;3.17;2.80;;;20.30;99.90;;;;;;5033085;28;20533;-70
2023/08/27 06:49:30;;;;;;;6.53;3.80;;;20.40;99.90;;;;;;5032936;28;20254;-70
2023/08/27 06:51:55;;;;;;;4.10;2.77;;;20.30;99.90;;;;;;5033136;28;20222;-70
2023/08/27 06:54:21;;;;;;;2.50;2.30;;;20.30;99.90;;;;;;5033358;28;20661;-71
2023/08/27 06:56:46;;;;;;;2.73;2.53;;;20.40;99.90;;;;;;5032681;28;20172;-71
2023/08/27 06:59:12;;;;;;;2.90;2.20;;;20.30;99.90;;;;;;5033351;28;20174;-70
2023/08/27 07:01:39;;;;;;;3.77;2.60;;;20.30;99.90;;;;;;5033704;28;20180;-70
2023/08/27 07:04:05;;;;;;;2.97;2.77;;;20.20;99.90;;;;;;5032582;28;20409;-69
2023/08/27 07:06:31;;;;;;;2.70;2.50;;;20.20;99.90;;;;;;5033356;28;20442;-71
2023/08/27 07:08:56;;;;;;;3.30;2.57;;;20.10;99.90;;;;;;5032954;28;20174;-70
2023/08/27 07:11:22;;;;;;;3.20;2.73;;;20.20;99.90;;;;;;5032388;28;20441;-70
2023/08/27 07:13:49;;;;;;;3.27;2.87;;;20.10;99.90;;;;;;5032780;28;20199;-70
2023/08/27 07:16:15;;;;;;;2.73;2.47;;;20.30;99.90;;;;;;5032915;28;20175;-70
2023/08/27 07:18:41;;;;;;;2.93;2.73;;;20.40;99.90;;;;;;5033103;28;20475;-70
2023/08/27 07:21:07;;;;;;;2.77;2.47;;;20.50;99.90;;;;;;5032861;28;20421;-71
2023/08/27 07:23:32;;;;;;;4.63;2.50;;;20.60;99.90;;;;;;5033054;28;20251;-70
2023/08/27 07:25:58;;;;;;;3.50;2.83;;;20.20;99.90;;;;;;5033117;28;20198;-70
2023/08/27 07:28:23;;;;;;;2.67;2.47;;;20.30;99.90;;;;;;5032114;28;20168;-70
2023/08/27 07:30:50;;;;;;;2.50;2.30;;;20.50;99.90;;;;;;5032439;28;20278;-71
2023/08/27 07:33:17;;;;;;;3.33;2.93;;;20.50;99.90;;;;;;5032676;28;20290;-70
2023/08/27 07:35:43;;;;;;;3.50;2.70;;;20.60;99.90;;;;;;5032265;28;20438;-70
2023/08/27 07:38:08;;;;;;;3.37;2.50;;;20.80;99.90;;;;;;5032348;28;20176;-70
2023/08/27 07:40:38;;;;;;;2.97;2.50;;;20.90;99.90;;;;;;5031665;28;20207;-70
2023/08/27 07:43:04;;;;;;;2.63;2.37;;;20.90;99.90;;;;;;5031755;28;20178;-69
2023/08/27 07:45:30;;;;;;;2.93;2.63;;;21.00;99.90;;;;;;5032363;28;20519;-70
2023/08/27 07:47:56;;;;;;;2.50;2.20;;;21.00;99.90;;;;;;5032381;28;20402;-69
2023/08/27 07:50:22;;;;;;;3.50;2.20;;;21.00;99.90;;;;;;5032356;28;20252;-70
2023/08/27 07:52:48;;;;;;;2.70;2.10;;;21.00;99.90;;;;;;5032503;28;20175;-69
2023/08/27 07:55:14;;;;;;;3.63;1.93;;;20.70;99.90;;;;;;5032729;28;20627;-70
2023/08/27 07:57:40;;;;;;;2.33;2.00;;;20.80;99.90;;;;;;5032005;28;20410;-70
2023/08/27 08:00:06;;;;;;;3.30;2.20;;;20.80;99.90;;;;;;5032111;28;20981;-71
2023/08/27 08:02:31;;;;;;;2.10;1.90;;;20.80;99.90;;;;;;5032319;28;20309;-69
2023/08/27 08:04:58;;;;;;;2.47;2.20;;;20.80;99.90;;;;;;5031879;28;20552;-71
2023/08/27 08:07:24;;;;;;;1.70;1.60;;;20.90;99.90;;;;;;5031581;28;20630;-70
2023/08/27 08:09:49;;;;;;;3.33;1.73;;;20.90;99.90;;;;;;5031998;28;20398;-71
2023/08/27 08:12:15;;;;;;;2.77;2.00;;;20.80;99.90;;;;;;5031314;28;20195;-69
2023/08/27 08:14:40;;;;;;;2.53;2.33;;;20.80;99.90;;;;;;5031364;28;20276;-70
2023/08/27 08:17:06;;;;;;;2.70;2.20;;;20.80;99.90;;;;;;5031041;28;20210;-69
2023/08/27 08:19:31;;;;;;;2.90;2.10;;;20.90;99.90;;;;;;5031814;28;20180;-70
2023/08/27 08:21:57;;;;;;;2.47;1.83;;;21.00;99.90;;;;;;5031533;28;20183;-69
2023/08/27 08:24:23;;;;;;;2.40;2.20;;;20.90;99.90;;;;;;5031458;28;20630;-70
2023/08/27 08:26:52;;;;;;;2.20;2.00;;;20.80;99.90;;;;;;5031044;28;20180;-69
2023/08/27 08:29:19;;;;;;;1.67;1.57;;;20.80;99.90;;;;;;5030355;28;20179;-70
2023/08/27 08:31:45;;;;;;;2.13;1.77;;;20.90;99.90;;;;;;5031884;28;20937;-70
2023/08/27 08:34:10;;;;;;;2.03;1.70;;;21.10;99.90;;;;;;5031548;28;20421;-69
2023/08/27 08:36:36;;;;;;;3.03;2.10;;;21.20;99.90;;;;;;5031239;28;20179;-69
2023/08/27 08:39:01;;;;;;;2.13;1.70;;;21.10;99.90;;;;;;5030951;28;20233;-71
2023/08/27 08:41:28;;;;;;;4.50;1.73;;;21.00;99.90;;;;;;5031225;28;20244;-70
2023/08/27 08:44:16;;;;;;;1.93;1.73;;;21.00;99.90;;;;;;5031011;28;20558;-68
2023/08/27 08:46:44;;;;;;;1.90;1.50;;;21.00;99.90;;;;;;5031106;28;20448;-70
2023/08/27 08:49:15;;;;;;;2.10;1.60;;;21.00;99.90;;;;;;5031609;28;20410;-70
2023/08/27 08:51:42;;;;;;;3.57;1.43;;;21.00;99.90;;;;;;5032032;28;20567;-70
2023/08/27 08:54:10;;;;;;;2.23;1.50;;;21.30;99.90;;;;;;5031464;28;20402;-69
2023/08/27 08:56:39;;;;;;;1.63;1.23;;;21.20;99.90;;;;;;5031063;28;20904;-69
2023/08/27 08:59:06;;;;;;;2.30;1.37;;;21.60;99.90;;;;;;5030574;28;20421;-69
2023/08/27 09:01:32;;;;;;;1.67;1.57;;;21.70;99.90;;;;;;5031707;28;20904;-70
2023/08/27 09:03:59;;;;;;;1.93;1.73;;;21.90;99.90;;;;;;5029849;28;20496;-70
2023/08/27 09:06:26;;;;;;;1.70;1.60;;;22.00;99.90;;;;;;5030925;28;20504;-70
2023/08/27 09:08:52;;;;;;;1.50;1.13;;;21.70;99.90;;;;;;5031145;28;20408;-70
2023/08/27 09:11:21;;;;;;;2.43;1.70;;;21.20;99.90;;;;;;5031126;28;20513;-68
2023/08/27 09:13:47;;;;;;;2.00;1.30;;;21.40;99.90;;;;;;5030699;28;20437;-70
2023/08/27 09:16:13;;;;;;;1.70;1.60;;;21.50;99.90;;;;;;5030858;28;20410;-70
2023/08/27 09:18:38;;;;;;;2.53;2.10;;;21.60;99.90;;;;;;5031001;28;20413;-70
2023/08/27 09:21:06;;;;;;;4.80;1.80;;;21.50;99.90;;;;;;5031066;28;20611;-70
2023/08/27 09:23:37;;;;;;;2.13;1.40;;;21.20;99.90;;;;;;5031002;28;20258;-69
2023/08/27 09:26:06;;;;;;;2.10;1.70;;;21.00;99.90;;;;;;5031186;28;20987;-70
2023/08/27 09:28:35;;;;;;;1.70;1.57;;;21.20;99.90;;;;;;5034745;28;20485;-69
2023/08/27 09:31:04;;;;;;;2.03;1.73;;;21.40;99.90;;;;;;5034682;28;20457;-70
2023/08/27 09:33:40;;;;;;;3.13;2.00;;;21.60;99.90;;;;;;5035176;28;20725;-70
2023/08/27 09:36:07;;;;;;;3.90;1.80;;;21.40;99.90;;;;;;5034757;28;20405;-70
2023/08/27 09:38:34;;;;;;;4.30;1.60;;;21.50;99.90;;;;;;5035120;28;20417;-69
2023/08/27 09:41:16;;;;;;;2.10;1.60;;;21.80;99.90;;;;;;5034836;28;20784;-70
2023/08/27 09:43:51;;;;;;;3.77;1.93;;;22.30;99.90;;;;;;5034021;28;20409;-68
2023/08/27 09:46:17;;;;;;;1.50;1.20;;;22.60;99.90;;;;;;5033987;28;20449;-69
2023/08/27 09:48:42;;;;;;;1.77;1.30;;;22.90;99.90;;;;;;5034479;28;20444;-69
2023/08/27 09:51:09;;;;;;;1.50;1.40;;;23.20;99.90;;;;;;5034547;28;20755;-70
2023/08/27 09:53:35;;;;;;;1.30;1.17;;;23.10;99.90;;;;;;5034245;28;20591;-69
2023/08/27 09:56:03;;;;;;;1.63;1.30;;;22.90;99.90;;;;;;5033986;28;20501;-70
2023/08/27 09:58:29;;;;;;;1.77;1.30;;;23.20;99.90;;;;;;5033731;28;20656;-70
2023/08/27 10:00:59;;;;;;;2.13;1.37;;;23.10;99.90;;;;;;5033874;28;20557;-71
2023/08/27 10:03:25;;;;;;;3.60;1.80;;;22.80;99.90;;;;;;5033867;28;20237;-69
2023/08/27 10:05:51;;;;;;;2.67;1.47;;;22.70;99.90;;;;;;5033529;28;20445;-70
2023/08/27 10:08:17;;;;;;;2.50;1.60;;;23.00;99.90;;;;;;5033770;28;20476;-70
2023/08/27 10:10:42;;;;;;;1.87;1.67;;;22.90;99.90;;;;;;5033950;28;20253;-69
2023/08/27 10:13:10;;;;;;;1.87;1.40;;;22.90;99.90;;;;;;5033270;28;20251;-69
2023/08/27 10:15:36;;;;;;;2.77;1.70;;;22.80;99.90;;;;;;5034138;28;20610;-70
2023/08/27 10:18:04;;;;;;;2.43;1.93;;;23.00;99.90;;;;;;5033825;28;20437;-69
2023/08/27 10:20:30;;;;;;;2.90;2.03;;;23.20;99.90;;;;;;5033965;28;20526;-70
2023/08/27 10:22:57;;;;;;;1.60;1.50;;;23.50;99.90;;;;;;5033869;28;20490;-69
2023/08/27 10:25:23;;;;;;;2.00;1.80;;;23.50;99.90;;;;;;5033798;28;20540;-69
2023/08/27 10:27:51;;;;;;;1.83;1.60;;;23.80;99.90;;;;;;5033780;28;20470;-70
2023/08/27 10:30:18;;;;;;;3.40;1.80;;;23.50;99.90;;;;;;5032894;28;21009;-69
2023/08/27 10:32:44;;;;;;;1.97;1.53;;;23.30;99.90;;;;;;5033758;28;20424;-70
2023/08/27 10:35:11;;;;;;;3.93;1.97;;;23.40;99.90;;;;;;5033398;28;20472;-71
2023/08/27 10:37:42;;;;;;;2.00;1.50;;;23.70;99.90;;;;;;5033722;28;20510;-69
2023/08/27 10:40:10;;;;;;;1.70;1.60;;;23.70;99.90;;;;;;5033116;28;20603;-69
2023/08/27 10:42:36;;;;;;;2.07;1.57;;;24.20;99.90;;;;;;5032998;28;20488;-69
2023/08/27 10:45:21;;;;;;;3.93;1.60;;;24.00;99.90;;;;;;5032803;28;20453;-70
2023/08/27 10:48:12;;;;;;;2.00;1.67;;;23.70;99.90;;;;;;5013406;28;20407;-69
2023/08/27 10:50:48;;;;;;;3.20;2.00;;;23.80;99.90;;;;;;5013332;28;20435;-69
2023/08/27 10:53:15;;;;;;;1.93;1.73;;;24.00;99.90;;;;;;5013350;28;20399;-70
2023/08/27 10:55:45;;;;;;;2.37;1.60;;;24.00;99.90;;;;;;5015985;28;20496;-70
2023/08/27 10:58:15;;;;;;;1.97;1.57;;;24.10;99.90;;;;;;5032531;28;20418;-70
2023/08/27 11:01:07;;;;;;;2.20;1.80;;;24.00;99.90;;;;;;5032724;28;20441;-70
2023/08/27 11:03:51;;;;;;;1.80;1.57;;;23.40;99.90;;;;;;5032762;28;20414;-69
2023/08/27 11:06:17;;;;;;;2.50;1.80;;;23.80;99.90;;;;;;5032727;28;20434;-70
2023/08/27 11:08:43;;;;;;;1.77;1.57;;;24.20;99.90;;;;;;5031587;28;20857;-70
2023/08/27 11:11:15;;;;;;;2.20;1.53;;;24.50;99.90;;;;;;5032687;28;20433;-70
2023/08/27 11:13:46;;;;;;;2.13;1.70;;;24.90;99.90;;;;;;5032214;28;20178;-69
2023/08/27 11:16:13;;;;;;;1.90;1.50;;;24.60;99.90;;;;;;5032955;28;20401;-69
2023/08/27 11:18:50;;;;;;;2.07;1.53;;;24.80;99.90;;;;;;5032931;28;20416;-70
2023/08/27 11:21:24;;;;;;;1.83;1.50;;;24.90;99.90;;;;;;5032772;28;20422;-69
2023/08/27 11:24:12;;;;;;;1.83;1.63;;;24.90;99.90;;;;;;5033044;28;20405;-70
2023/08/27 11:26:39;;;;;;;1.97;1.60;;;24.80;99.90;;;;;;5032270;28;20964;-70
2023/08/27 11:29:07;;;;;;;2.60;1.70;;;25.00;99.90;;;;;;5031874;28;20414;-69
2023/08/27 11:31:33;;;;;;;2.07;1.60;;;24.40;99.90;;;;;;5032445;28;20470;-70
2023/08/27 11:34:01;;;;;;;2.00;1.80;;;24.40;99.90;;;;;;5032924;28;20405;-70
2023/08/27 11:36:26;;;;;;;1.83;1.70;;;24.20;99.90;;;;;;5031586;28;20186;-70
2023/08/27 11:39:01;;;;;;;2.33;1.50;;;24.20;99.90;;;;;;5033161;28;20398;-69
2023/08/27 11:41:37;;;;;;;3.33;2.40;;;24.40;99.90;;;;;;5032846;28;20563;-70
2023/08/27 11:44:04;;;;;;;3.13;1.73;;;24.10;99.90;;;;;;5032275;28;20410;-70
2023/08/27 11:46:30;;;;;;;3.10;1.87;;;24.10;99.90;;;;;;5032334;28;20446;-70
2023/08/27 11:48:55;;;;;;;2.83;2.20;;;23.80;99.90;;;;;;5031705;28;20407;-69
2023/08/27 11:51:21;;;;;;;2.10;1.90;;;23.60;99.90;;;;;;5032171;28;20201;-70
2023/08/27 11:53:47;;;;;;;2.70;1.60;;;24.00;99.90;;;;;;5032395;28;20671;-69
2023/08/27 11:56:15;;;;;;;3.40;2.10;;;24.30;99.90;;;;;;5032072;28;20175;-69
2023/08/27 11:58:41;;;;;;;3.53;1.77;;;24.00;99.90;;;;;;5032430;28;20183;-69
2023/08/27 12:01:07;;;;;;;1.83;1.73;;;23.50;99.90;;;;;;5031998;28;20461;-69
2023/08/27 12:03:33;;;;;;;5.37;2.20;;;23.40;99.90;;;;;;5032218;28;20449;-69
2023/08/27 12:05:59;;;;;;;2.87;1.60;;;23.40;99.90;;;;;;5031632;28;20198;-70
2023/08/27 12:08:24;;;;;;;4.00;2.00;;;23.70;99.90;;;;;;5032000;28;20407;-69
2023/08/27 12:10:51;;;;;;;3.57;1.47;;;24.00;99.90;;;;;;5032108;28;20682;-70
2023/08/27 12:13:16;;;;;;;3.20;1.80;;;24.20;99.90;;;;;;5030286;28;20167;-70
2023/08/27 12:15:43;;;;;;;2.60;1.70;;;24.50;99.90;;;;;;5031999;28;20413;-70
2023/08/27 12:18:09;;;;;;;3.03;1.97;;;24.50;99.90;;;;;;5031817;28;20232;-70
2023/08/27 12:20:38;;;;;;;2.40;1.87;;;24.60;99.90;;;;;;5031385;28;20892;-69
2023/08/27 12:23:11;;;;;;;3.10;2.17;;;24.70;99.90;;;;;;5031816;28;20521;-70
2023/08/27 12:25:49;;;;;;;1.93;1.60;;;24.70;99.90;;;;;;5031900;28;20455;-70
2023/08/27 12:28:16;;;;;;;2.53;2.00;;;24.80;99.90;;;;;;5031319;28;20402;-69
2023/08/27 12:30:55;;;;;;;1.90;1.70;;;24.90;99.90;;;;;;5031494;28;20979;-70
2023/08/27 12:33:36;;;;;;;2.20;2.00;;;24.80;99.90;;;;;;5031743;28;20402;-69
2023/08/27 12:36:08;;;;;;;2.70;1.70;;;24.90;99.90;;;;;;5030966;28;20432;-69
2023/08/27 12:38:34;;;;;;;2.93;2.07;;;24.80;99.90;;;;;;5030036;28;20559;-70
2023/08/27 12:41:00;;;;;;;2.93;2.17;;;24.30;99.90;;;;;;5031359;28;20513;-70
2023/08/27 12:43:26;;;;;;;2.00;1.80;;;24.20;99.90;;;;;;5031406;28;20406;-70